»·PEaware :: N2494V KJAC-KSUN

N2494V :: KJAC-KSUN

FLIGHT INFORMATION

Flight Status: Arrived
Operator: Privately registered:
United States
More flights under this callsign
Pilot: Sally S. (18014)
Aircraft: Unknown
(DA62)
More flights by this aircraft type
Origin: KJAC Jackson Hole
United States
Destination: KSUN Friedman Meml
United States
More flights between these airports :: More routes between these airports
Route: ECUNA VIPUC
File this flight plan on PilotEdge
Remarks:
Altitude:
(Current/Filed)
10,500ft
Speed:
(Current/Filed)
165kts
Departed: 14-May-18 01:02 PM
Arrived: 14-May-18 02:01 PM
Distance/Time
Traveled:
155nm/0:59
Distance/Time
To Go:
Arrived

Flight Plot

Page will automatically refresh every two minutes.

Flight plan parsing failed; only flown route is shown


Map Options




Map Legend


Flown Route
Filed Route
Departure Airport
Arrival Airport
Navaid (VOR, NDB)
Fix

Horizontal Profiles

Position Reports

Time Latitude Longitude Heading Altitude Ground
Speed
14-May-18 12:43 43.600656 -110.738132 287 6455ft 0kts
14-May-18 12:44 43.600664 -110.738169 286 6455ft 0kts
14-May-18 12:45 43.600664 -110.738169 286 6455ft 0kts
14-May-18 12:46 43.600664 -110.738169 286 6455ft 0kts
14-May-18 12:47 43.600664 -110.738169 286 6455ft 0kts
14-May-18 12:48 43.600664 -110.738168 286 6455ft 0kts
14-May-18 12:49 43.600664 -110.738169 286 6455ft 0kts
14-May-18 12:50 43.600664 -110.738169 286 6455ft 0kts
14-May-18 12:51 43.600664 -110.738169 286 6455ft 0kts
14-May-18 12:52 43.600664 -110.738169 286 6455ft 0kts
14-May-18 12:53 43.600664 -110.738169 286 6455ft 0kts
14-May-18 12:54 43.600664 -110.738169 286 6455ft 0kts
14-May-18 12:55 43.600664 -110.738169 286 6455ft 0kts
14-May-18 12:56 43.600667 -110.738179 288 6455ft 1kts
14-May-18 12:57 43.602421 -110.738566 15 6455ft 12kts
14-May-18 12:58 43.607448 -110.736169 18 6455ft 25kts
14-May-18 12:59 43.614409 -110.732703 12 6455ft 21kts
14-May-18 13:00 43.614936 -110.732769 330 6455ft 0kts
14-May-18 13:01 43.614936 -110.732769 330 6455ft 0kts
14-May-18 13:02 43.614124 -110.734434 201 6455ft 43kts
14-May-18 13:03 43.586881 -110.745991 195 7244ft 115kts
14-May-18 13:04 43.562744 -110.768429 227 8550ft 113kts
14-May-18 13:05 43.541331 -110.800305 228 9789ft 115kts
14-May-18 13:06 43.524063 -110.838599 260 10523ft 145kts
14-May-18 13:07 43.516894 -110.900396 261 10511ft 176kts
14-May-18 13:08 43.509113 -110.967240 262 10509ft 176kts
14-May-18 13:09 43.501426 -111.033050 262 10508ft 177kts
14-May-18 13:10 43.493649 -111.099308 263 10508ft 179kts
14-May-18 13:11 43.485633 -111.167263 263 10509ft 181kts
14-May-18 13:12 43.477483 -111.235906 263 10509ft 182kts
14-May-18 13:13 43.469346 -111.304084 263 10500ft 182kts
14-May-18 13:14 43.461245 -111.371497 263 10498ft 182kts
14-May-18 13:15 43.452970 -111.439870 263 10488ft 182kts
14-May-18 13:16 43.451791 -111.449593 263 10486ft 183kts
14-May-18 13:17 43.443411 -111.518630 263 10474ft 183kts
14-May-18 13:18 43.434969 -111.587873 263 10463ft 184kts
14-May-18 13:19 43.426672 -111.655541 262 10460ft 184kts
14-May-18 13:20 43.418286 -111.723585 262 10461ft 183kts
14-May-18 13:21 43.409881 -111.791478 262 10462ft 184kts
14-May-18 13:22 43.401275 -111.860605 262 10463ft 184kts
14-May-18 13:23 43.392614 -111.929847 262 10463ft 184kts
14-May-18 13:24 43.383920 -111.998989 262 10463ft 184kts
14-May-18 13:25 43.375392 -112.068136 269 10458ft 183kts
14-May-18 13:26 43.379309 -112.137558 277 10463ft 182kts
14-May-18 13:27 43.383911 -112.206725 277 10463ft 182kts
14-May-18 13:28 43.388488 -112.275862 277 10463ft 182kts
14-May-18 13:29 43.393028 -112.345117 277 10462ft 182kts
14-May-18 13:30 43.397541 -112.414542 277 10456ft 182kts
14-May-18 13:31 43.401999 -112.483733 277 10450ft 182kts
14-May-18 13:32 43.406433 -112.553203 277 10445ft 182kts
14-May-18 13:33 43.410814 -112.622515 278 10443ft 182kts
14-May-18 13:34 43.413710 -112.668742 277 10441ft 182kts
14-May-18 13:35 43.417926 -112.736558 277 10438ft 182kts
14-May-18 13:36 43.422092 -112.804216 277 10436ft 182kts
14-May-18 13:37 43.426107 -112.869965 277 10435ft 181kts
14-May-18 13:38 43.429960 -112.933750 276 10435ft 181kts
14-May-18 13:39 43.433878 -112.999183 276 10435ft 180kts
14-May-18 13:40 43.437827 -113.065873 276 10435ft 180kts
14-May-18 13:41 43.441761 -113.133011 276 10436ft 180kts
14-May-18 13:42 43.445751 -113.201733 276 10436ft 183kts
14-May-18 13:43 43.449406 -113.265383 276 10463ft 183kts
14-May-18 13:44 43.453394 -113.335373 276 10439ft 184kts
14-May-18 13:45 43.457339 -113.405495 276 10402ft 184kts
14-May-18 13:46 43.461183 -113.474569 276 10365ft 183kts
14-May-18 13:47 43.464976 -113.543505 276 10335ft 182kts
14-May-18 13:48 43.468670 -113.611372 276 10335ft 181kts
14-May-18 13:49 43.471885 -113.670066 275 10334ft 181kts
14-May-18 13:50 43.475297 -113.733857 275 10335ft 181kts
14-May-18 13:51 43.478913 -113.802384 275 10335ft 181kts
14-May-18 13:52 43.482480 -113.870750 275 10335ft 181kts
14-May-18 13:53 43.485945 -113.937932 275 10335ft 181kts
14-May-18 13:54 43.489339 -114.004518 275 10335ft 181kts
14-May-18 13:55 43.492751 -114.071753 275 9479ft 173kts
14-May-18 13:56 43.495846 -114.134877 274 8506ft 161kts
14-May-18 13:57 43.491627 -114.192861 258 7836ft 149kts
14-May-18 13:58 43.484594 -114.248316 287 6998ft 145kts
14-May-18 13:59 43.507793 -114.289349 327 6108ft 119kts
14-May-18 14:00 43.518812 -114.311437 151 5763ft 105kts
14-May-18 14:01 43.503890 -114.296224 225 5323ft 8kts
14-May-18 14:02 43.504908 -114.298557 265 5323ft 0kts

Navigation Log

Ident Type
Flight plan parsing failed, navigation log unavailable